createdAt,value
2022-09-28T00:00:17.974Z,894
2022-09-28T00:02:18.438Z,904
2022-09-28T00:04:18.264Z,865
2022-09-28T00:06:18.068Z,875
2022-09-28T00:08:17.559Z,890
2022-09-28T00:10:17.677Z,867
2022-09-28T00:12:17.969Z,801
2022-09-28T00:14:18.088Z,881
2022-09-28T00:16:17.980Z,838
2022-09-28T00:18:17.988Z,793
2022-09-28T00:20:17.410Z,792
2022-09-28T00:22:17.890Z,828
2022-09-28T00:24:17.976Z,872
2022-09-28T00:26:17.762Z,803
2022-09-28T00:28:17.670Z,853
2022-09-28T00:30:17.578Z,793
2022-09-28T00:32:18.370Z,687
2022-09-28T00:34:18.250Z,776
2022-09-28T00:36:17.976Z,574
2022-09-28T00:38:18.557Z,827
2022-09-28T00:40:18.283Z,592
2022-09-28T00:42:17.591Z,794
2022-09-28T00:44:17.558Z,809
2022-09-28T00:46:17.581Z,657
2022-09-28T00:48:17.832Z,633
2022-09-28T00:50:18.011Z,827
2022-09-28T00:52:18.386Z,580
2022-09-28T00:54:18.741Z,854
2022-09-28T00:56:18.065Z,833
2022-09-28T00:58:17.949Z,847
2022-09-28T01:00:19.250Z,830
2022-09-28T01:02:17.647Z,739
2022-09-28T01:04:17.636Z,774
2022-09-28T01:06:17.491Z,805
2022-09-28T01:08:17.746Z,839
2022-09-28T01:10:17.552Z,923
2022-09-28T01:12:18.299Z,846
2022-09-28T01:14:18.077Z,899
2022-09-28T01:16:17.929Z,830
2022-09-28T01:18:17.362Z,673
2022-09-28T01:20:18.028Z,639
2022-09-28T01:22:17.836Z,751
2022-09-28T01:24:17.688Z,558
2022-09-28T01:26:17.608Z,757
2022-09-28T01:28:17.421Z,799
2022-09-28T01:30:18.220Z,653
2022-09-28T01:32:18.017Z,597
2022-09-28T01:34:17.944Z,839
2022-09-28T01:36:17.713Z,802
2022-09-28T01:38:18.011Z,814
2022-09-28T01:40:17.958Z,783
2022-09-28T01:42:17.827Z,833
2022-09-28T01:44:17.867Z,635
2022-09-28T01:46:17.772Z,891
2022-09-28T01:48:17.661Z,649
2022-09-28T01:50:17.493Z,822
2022-09-28T01:52:17.732Z,770
2022-09-28T01:54:17.661Z,632
2022-09-28T01:56:17.699Z,607
2022-09-28T01:58:17.520Z,736
2022-09-28T02:00:18.274Z,630
2022-09-28T02:02:18.216Z,770
2022-09-28T02:04:18.263Z,784
2022-09-28T02:06:17.468Z,782
2022-09-28T02:08:18.311Z,690
2022-09-28T02:10:18.067Z,637
2022-09-28T02:12:17.855Z,693
2022-09-28T02:14:17.671Z,794
2022-09-28T02:16:17.576Z,762
2022-09-28T02:18:17.774Z,725
2022-09-28T02:20:17.740Z,753
2022-09-28T02:22:17.614Z,660
2022-09-28T02:24:21.332Z,700
2022-09-28T02:26:18.296Z,804
2022-09-28T02:28:18.104Z,750
2022-09-28T02:30:17.942Z,570
2022-09-28T02:32:17.709Z,698
2022-09-28T02:34:17.640Z,651
2022-09-28T02:36:17.772Z,813
2022-09-28T02:38:17.640Z,777
2022-09-28T02:40:17.711Z,749
2022-09-28T02:42:17.541Z,747
2022-09-28T02:44:18.240Z,679
2022-09-28T02:46:18.115Z,699
2022-09-28T02:48:24.037Z,813
2022-09-28T02:50:18.110Z,664
2022-09-28T02:52:18.222Z,604
2022-09-28T02:54:18.974Z,758
2022-09-28T02:56:18.042Z,787
2022-09-28T02:58:17.784Z,684
2022-09-28T03:00:17.630Z,747
2022-09-28T03:02:17.476Z,630
2022-09-28T03:04:17.755Z,736
2022-09-28T03:06:17.523Z,806
2022-09-28T03:08:17.594Z,672
2022-09-28T03:10:17.413Z,654
2022-09-28T03:12:18.226Z,781
2022-09-28T03:14:17.971Z,587
2022-09-28T03:16:17.766Z,563
2022-09-28T03:18:18.067Z,675
2022-09-28T03:20:17.860Z,592
2022-09-28T03:22:17.692Z,787
2022-09-28T03:24:17.753Z,797
2022-09-28T03:26:17.577Z,784
2022-09-28T03:28:17.976Z,738
2022-09-28T03:30:17.742Z,786
2022-09-28T03:32:17.568Z,646
2022-09-28T03:34:17.866Z,790
2022-09-28T03:36:17.642Z,720
2022-09-28T03:38:17.410Z,697
2022-09-28T03:40:18.459Z,757
2022-09-28T03:42:18.255Z,655
2022-09-28T03:44:18.047Z,823
2022-09-28T03:46:17.831Z,747
2022-09-28T03:48:20.590Z,748
2022-09-28T03:50:17.809Z,777
2022-09-28T03:52:17.594Z,801
2022-09-28T03:54:17.634Z,570
2022-09-28T03:56:17.760Z,824
2022-09-28T03:58:17.546Z,714
2022-09-28T04:00:17.351Z,819
2022-09-28T04:02:18.169Z,711
2022-09-28T04:04:18.382Z,743
2022-09-28T04:06:18.202Z,692
2022-09-28T04:08:17.952Z,700
2022-09-28T04:10:17.703Z,790
2022-09-28T04:12:17.494Z,783
2022-09-28T04:14:17.445Z,575
2022-09-28T04:16:18.328Z,833
2022-09-28T04:18:17.435Z,690
2022-09-28T04:20:18.244Z,762
2022-09-28T04:22:18.067Z,740
2022-09-28T04:24:18.251Z,814
2022-09-28T04:26:18.049Z,635
2022-09-28T04:28:17.800Z,640
2022-09-28T04:30:17.636Z,801
2022-09-28T04:32:17.384Z,792
2022-09-28T04:34:18.234Z,612
2022-09-28T04:36:18.067Z,685
2022-09-28T04:38:26.868Z,734
2022-09-28T04:40:17.509Z,759
2022-09-28T04:42:18.301Z,729
2022-09-28T04:44:17.816Z,836
2022-09-28T04:46:17.660Z,756
2022-09-28T04:48:17.448Z,796
2022-09-28T04:50:17.593Z,858
2022-09-28T04:52:18.583Z,664
2022-09-28T04:54:17.771Z,743
2022-09-28T04:56:17.854Z,827
2022-09-28T04:58:17.640Z,859
2022-09-28T05:00:17.480Z,598
2022-09-28T05:02:17.424Z,731
2022-09-28T05:04:20.300Z,834
2022-09-28T05:06:18.059Z,750
2022-09-28T05:08:18.303Z,579
2022-09-28T05:10:18.103Z,822
2022-09-28T05:12:17.914Z,616
2022-09-28T05:14:17.747Z,824
2022-09-28T05:16:17.617Z,747
2022-09-28T05:18:17.605Z,716
2022-09-28T05:20:17.897Z,849
2022-09-28T05:22:17.659Z,703
2022-09-28T05:24:17.803Z,641
2022-09-28T05:26:17.639Z,866
2022-09-28T05:28:17.546Z,659
2022-09-28T05:30:17.620Z,790
2022-09-28T05:32:17.408Z,665
2022-09-28T05:34:18.270Z,710
2022-09-28T05:36:17.900Z,695
2022-09-28T05:38:17.670Z,799
2022-09-28T05:40:17.610Z,801
2022-09-28T05:42:17.422Z,890
2022-09-28T05:44:18.383Z,784
2022-09-28T05:46:18.260Z,815
2022-09-28T05:48:18.177Z,741
2022-09-28T05:50:17.984Z,643
2022-09-28T05:52:17.808Z,702
2022-09-28T05:54:17.852Z,918
2022-09-28T05:56:17.851Z,757
2022-09-28T05:58:17.432Z,820
2022-09-28T06:00:18.324Z,856
2022-09-28T06:02:18.157Z,756
2022-09-28T06:04:18.174Z,777
2022-09-28T06:06:18.253Z,879
2022-09-28T06:08:17.975Z,753
2022-09-28T06:10:17.831Z,748
2022-09-28T06:12:17.747Z,838
2022-09-28T06:14:17.640Z,771
2022-09-28T06:16:17.543Z,725
2022-09-28T06:18:17.518Z,589
2022-09-28T06:20:18.276Z,748
2022-09-28T06:22:17.948Z,701
2022-09-28T06:24:17.829Z,808
2022-09-28T06:26:17.681Z,717
2022-09-28T06:28:17.528Z,901
2022-09-28T06:30:17.372Z,756
2022-09-28T06:32:18.192Z,759
2022-09-28T06:34:18.201Z,678
2022-09-28T06:36:18.335Z,857
2022-09-28T06:38:18.195Z,751
2022-09-28T06:40:18.375Z,679
2022-09-28T06:42:18.240Z,890
2022-09-28T06:44:17.618Z,893
2022-09-28T06:46:17.607Z,785
2022-09-28T06:48:17.399Z,891
2022-09-28T06:50:18.159Z,680
2022-09-28T06:52:17.958Z,874
2022-09-28T06:54:17.848Z,754
2022-09-28T06:56:17.676Z,515
2022-09-28T06:58:17.394Z,882
2022-09-28T07:00:18.243Z,723
2022-09-28T07:02:17.824Z,774
2022-09-28T07:04:17.717Z,877
2022-09-28T07:06:17.637Z,830
2022-09-28T07:08:17.493Z,769
2022-09-28T07:10:19.357Z,837
2022-09-28T07:12:17.401Z,748
2022-09-28T07:14:39.507Z,834
2022-09-28T07:16:21.645Z,858
2022-09-28T07:18:17.468Z,941
2022-09-28T07:20:19.530Z,883
2022-09-28T07:22:19.494Z,820
2022-09-28T07:24:17.835Z,798
2022-09-28T07:26:20.936Z,808
2022-09-28T07:28:18.051Z,810
2022-09-28T07:30:17.894Z,883
2022-09-28T07:32:17.786Z,952
2022-09-28T07:34:17.699Z,645
2022-09-28T07:36:17.737Z,833
2022-09-28T07:38:17.565Z,756
2022-09-28T07:40:17.504Z,847
2022-09-28T07:42:18.321Z,924
2022-09-28T07:44:18.341Z,923
2022-09-28T07:46:17.397Z,961
2022-09-28T07:48:18.316Z,760
2022-09-28T07:50:18.099Z,760
2022-09-28T07:52:18.052Z,700
2022-09-28T07:54:17.875Z,842
2022-09-28T07:56:17.680Z,892
2022-09-28T07:58:17.510Z,797
2022-09-28T08:00:18.334Z,768
2022-09-28T08:02:18.164Z,843
2022-09-28T08:04:18.011Z,916
2022-09-28T08:06:17.800Z,809
2022-09-28T08:08:17.683Z,786
2022-09-28T08:10:17.531Z,786
2022-09-28T08:12:18.412Z,934
2022-09-28T08:14:18.360Z,846
2022-09-28T08:16:18.242Z,749
2022-09-28T08:18:17.453Z,868
2022-09-28T08:20:18.287Z,773
2022-09-28T08:22:18.363Z,721
2022-09-28T08:24:18.386Z,899
2022-09-28T08:26:18.301Z,833
2022-09-28T08:28:18.391Z,806
2022-09-28T08:30:18.196Z,728
2022-09-28T08:32:17.921Z,716
2022-09-28T08:34:17.818Z,808
2022-09-28T08:36:17.659Z,755
2022-09-28T08:38:17.419Z,763
2022-09-28T08:40:17.548Z,807
2022-09-28T08:42:18.314Z,751
2022-09-28T08:44:18.279Z,826
2022-09-28T08:46:18.253Z,851
2022-09-28T08:48:18.167Z,812
2022-09-28T08:50:17.920Z,759
2022-09-28T08:52:17.696Z,822
2022-09-28T08:54:17.585Z,843
2022-09-28T08:56:17.359Z,664
2022-09-28T08:58:18.165Z,858
2022-09-28T09:00:18.172Z,872
2022-09-28T09:02:18.166Z,908
2022-09-28T09:04:18.089Z,838
2022-09-28T09:06:18.666Z,803
2022-09-28T09:08:17.656Z,757
2022-09-28T09:10:17.487Z,926
2022-09-28T09:12:18.289Z,755
2022-09-28T09:14:18.199Z,776
2022-09-28T09:16:18.124Z,727
2022-09-28T09:18:19.849Z,878
2022-09-28T09:20:18.041Z,735
2022-09-28T09:22:17.868Z,845
2022-09-28T09:24:17.704Z,669
2022-09-28T09:26:21.219Z,781
2022-09-28T09:28:17.550Z,662
2022-09-28T09:30:20.638Z,969
2022-09-28T09:32:17.477Z,833
2022-09-28T09:34:18.364Z,766
2022-09-28T09:36:18.282Z,890
2022-09-28T09:38:18.376Z,823
2022-09-28T09:40:18.354Z,854
2022-09-28T09:42:18.297Z,899
2022-09-28T09:44:18.191Z,787
2022-09-28T09:46:18.156Z,844
2022-09-28T09:48:17.968Z,819
2022-09-28T09:50:17.777Z,730
2022-09-28T09:52:17.574Z,915
2022-09-28T09:54:17.538Z,911
2022-09-28T09:56:18.374Z,870
2022-09-28T09:58:18.305Z,922
2022-09-28T10:00:18.192Z,727
2022-09-28T10:02:18.350Z,873
2022-09-28T10:04:17.366Z,686
2022-09-28T10:06:18.169Z,939
2022-09-28T10:08:18.125Z,792
2022-09-28T10:10:18.277Z,943
2022-09-28T10:12:18.053Z,786
2022-09-28T10:14:18.272Z,837
2022-09-28T10:16:18.143Z,709
2022-09-28T10:18:18.133Z,774
2022-09-28T10:20:17.963Z,840
2022-09-28T10:22:17.908Z,779
2022-09-28T10:24:17.773Z,921
2022-09-28T10:26:20.534Z,892
2022-09-28T10:28:17.599Z,839
2022-09-28T10:30:17.466Z,759
2022-09-28T10:32:18.491Z,704
2022-09-28T10:34:18.348Z,792
2022-09-28T10:36:18.275Z,732
2022-09-28T10:38:17.365Z,796
2022-09-28T10:40:18.273Z,806
2022-09-28T10:42:18.317Z,930
2022-09-28T10:44:18.330Z,797
2022-09-28T10:46:18.257Z,910
2022-09-28T10:48:18.116Z,924
2022-09-28T10:50:17.743Z,806
2022-09-28T10:52:17.512Z,774
2022-09-28T10:54:17.526Z,853
2022-09-28T10:56:17.463Z,836
2022-09-28T10:58:17.471Z,901
2022-09-28T11:00:18.208Z,814
2022-09-28T11:02:17.634Z,900
2022-09-28T11:04:17.620Z,721
2022-09-28T11:06:17.530Z,851
2022-09-28T11:08:18.281Z,1018
2022-09-28T11:10:18.370Z,981
2022-09-28T11:12:18.249Z,849
2022-09-28T11:14:18.331Z,914
2022-09-28T11:16:18.246Z,897
2022-09-28T11:18:18.403Z,951
2022-09-28T11:20:18.258Z,997
2022-09-28T11:22:18.100Z,872
2022-09-28T11:24:19.209Z,961
2022-09-28T11:26:18.690Z,960
2022-09-28T11:28:17.758Z,926
2022-09-28T11:30:17.633Z,932
2022-09-28T11:32:17.672Z,851
2022-09-28T11:34:17.643Z,880
2022-09-28T11:36:17.566Z,814
2022-09-28T11:38:17.428Z,894
2022-09-28T11:40:18.348Z,911
2022-09-28T11:42:18.230Z,839
2022-09-28T11:44:18.415Z,832
2022-09-28T11:46:18.330Z,941
2022-09-28T11:48:18.152Z,933
2022-09-28T11:50:22.850Z,907
2022-09-28T11:52:17.597Z,731
2022-09-28T11:54:17.403Z,903
2022-09-28T11:56:18.172Z,782
2022-09-28T11:58:17.977Z,962
2022-09-28T12:00:17.835Z,863
2022-09-28T12:02:17.884Z,1030
2022-09-28T12:04:17.888Z,905
2022-09-28T12:06:17.767Z,993
2022-09-28T12:08:17.581Z,971
2022-09-28T12:10:17.352Z,1034
2022-09-28T12:12:17.688Z,912
2022-09-28T12:14:17.557Z,935
2022-09-28T12:16:38.690Z,861
2022-09-28T12:18:17.783Z,1046
2022-09-28T12:20:17.543Z,862
2022-09-28T12:22:17.710Z,910
2022-09-28T12:24:17.592Z,922
2022-09-28T12:26:17.383Z,885
2022-09-28T12:28:18.244Z,1009
2022-09-28T12:30:18.065Z,872
2022-09-28T12:32:17.883Z,940
2022-09-28T12:34:17.750Z,925
2022-09-28T12:36:17.548Z,867
2022-09-28T12:38:17.442Z,821
2022-09-28T12:40:18.318Z,1024
2022-09-28T12:42:18.280Z,923
2022-09-28T12:44:18.344Z,896
2022-09-28T12:46:18.294Z,890
2022-09-28T12:48:18.116Z,941
2022-09-28T12:50:37.907Z,1040
2022-09-28T12:52:18.179Z,909
2022-09-28T12:54:18.402Z,816
2022-09-28T12:56:19.461Z,814
2022-09-28T12:58:17.427Z,931
2022-09-28T13:00:18.199Z,945
2022-09-28T13:02:18.113Z,909
2022-09-28T13:04:17.976Z,946
2022-09-28T13:06:17.793Z,896
2022-09-28T13:08:17.783Z,898
2022-09-28T13:10:17.664Z,888
2022-09-28T13:12:17.527Z,926
2022-09-28T13:14:18.329Z,833
2022-09-28T13:16:17.512Z,882
2022-09-28T13:18:17.599Z,856
2022-09-28T13:20:17.357Z,896
2022-09-28T13:22:18.429Z,988
2022-09-28T13:24:31.419Z,737
2022-09-28T13:26:17.844Z,1061
2022-09-28T13:28:17.653Z,819
2022-09-28T13:30:17.357Z,966
2022-09-28T13:32:17.402Z,970
2022-09-28T13:34:17.481Z,819
2022-09-28T13:36:18.251Z,804
2022-09-28T13:38:18.059Z,846
2022-09-28T13:40:18.228Z,882
2022-09-28T13:42:18.022Z,907
2022-09-28T13:44:17.859Z,892
2022-09-28T13:46:17.689Z,1023
2022-09-28T13:48:17.451Z,1030
2022-09-28T13:50:18.282Z,913
2022-09-28T13:52:18.090Z,1015
2022-09-28T13:54:17.962Z,897
2022-09-28T13:56:17.758Z,917
2022-09-28T13:58:17.694Z,866
2022-09-28T14:00:17.537Z,969
2022-09-28T14:02:18.394Z,899
2022-09-28T14:04:18.600Z,760
2022-09-28T14:06:17.496Z,820
2022-09-28T14:08:18.246Z,1076
2022-09-28T14:10:18.157Z,972
2022-09-28T14:12:17.917Z,709
2022-09-28T14:14:17.755Z,1042
2022-09-28T14:16:17.614Z,969
2022-09-28T14:18:17.578Z,853
2022-09-28T14:20:17.432Z,1041
2022-09-28T14:22:18.194Z,727
2022-09-28T14:24:17.967Z,1072
2022-09-28T14:26:17.781Z,801
2022-09-28T14:28:17.626Z,877
2022-09-28T14:30:17.462Z,891
2022-09-28T14:32:18.296Z,1023
2022-09-28T14:34:18.233Z,855
2022-09-28T14:36:18.177Z,872
2022-09-28T14:38:17.993Z,751
2022-09-28T14:40:17.828Z,792
2022-09-28T14:42:17.643Z,885
2022-09-28T14:44:17.457Z,834
2022-09-28T14:46:18.280Z,804
2022-09-28T14:48:18.313Z,925
2022-09-28T14:50:18.101Z,948
2022-09-28T14:52:17.892Z,835
2022-09-28T14:54:17.763Z,940
2022-09-28T14:56:17.704Z,906
2022-09-28T14:58:17.484Z,971
2022-09-28T15:00:18.371Z,942
2022-09-28T15:02:17.324Z,896
2022-09-28T15:04:18.346Z,919
2022-09-28T15:06:17.397Z,948
2022-09-28T15:08:18.178Z,887
2022-09-28T15:10:18.295Z,860
2022-09-28T15:12:18.072Z,910
2022-09-28T15:14:17.975Z,952
2022-09-28T15:16:17.953Z,977
2022-09-28T15:18:17.879Z,1008
2022-09-28T15:20:17.663Z,998
2022-09-28T15:22:17.459Z,846
2022-09-28T15:24:18.274Z,952
2022-09-28T15:26:18.224Z,813
2022-09-28T15:28:18.033Z,1026
2022-09-28T15:30:17.770Z,1013
2022-09-28T15:32:17.565Z,958
2022-09-28T15:34:17.363Z,1003
2022-09-28T15:36:17.437Z,962
2022-09-28T15:38:18.279Z,1029
2022-09-28T15:40:18.250Z,930
2022-09-28T15:42:18.059Z,884
2022-09-28T15:44:17.930Z,935
2022-09-28T15:46:17.861Z,1017
2022-09-28T15:48:17.664Z,1100
2022-09-28T15:50:17.462Z,981
2022-09-28T15:52:18.260Z,849
2022-09-28T15:54:18.204Z,854
2022-09-28T15:56:18.029Z,963
2022-09-28T15:58:17.785Z,1010
2022-09-28T16:00:17.507Z,1063
2022-09-28T16:02:17.578Z,867
2022-09-28T16:04:17.318Z,940
2022-09-28T16:06:18.055Z,1193
2022-09-28T16:08:17.819Z,1139
2022-09-28T16:10:17.678Z,1087
2022-09-28T16:12:17.501Z,1048
2022-09-28T16:14:18.256Z,957
2022-09-28T16:16:17.634Z,1116
2022-09-28T16:18:17.554Z,1101
2022-09-28T16:20:18.365Z,887
2022-09-28T16:22:18.152Z,985
2022-09-28T16:24:17.979Z,1023
2022-09-28T16:26:17.797Z,806
2022-09-28T16:28:17.606Z,1050
2022-09-28T16:30:17.431Z,975
2022-09-28T16:32:17.651Z,1059
2022-09-28T16:34:17.543Z,1080
2022-09-28T16:36:17.436Z,1035
2022-09-28T16:38:18.214Z,896
2022-09-28T16:40:18.099Z,865
2022-09-28T16:42:17.992Z,932
2022-09-28T16:44:17.837Z,1040
2022-09-28T16:46:17.681Z,970
2022-09-28T16:48:17.513Z,861
2022-09-28T16:50:17.329Z,1014
2022-09-28T16:52:18.124Z,1022
2022-09-28T16:54:17.912Z,1032
2022-09-28T16:56:17.730Z,875
2022-09-28T16:58:17.494Z,856
2022-09-28T17:00:17.402Z,1041
2022-09-28T17:02:30.046Z,907
2022-09-28T17:04:18.242Z,843
2022-09-28T17:06:17.381Z,891
2022-09-28T17:08:18.186Z,1025
2022-09-28T17:10:18.019Z,873
2022-09-28T17:12:17.795Z,1069
2022-09-28T17:14:17.598Z,995
2022-09-28T17:16:17.462Z,1004
2022-09-28T17:18:17.564Z,988
2022-09-28T17:20:17.408Z,1043
2022-09-28T17:22:18.156Z,1050
2022-09-28T17:24:18.157Z,1083
2022-09-28T17:26:18.275Z,1061
2022-09-28T17:28:17.998Z,1089
2022-09-28T17:30:18.433Z,1010
2022-09-28T17:32:18.245Z,1050
2022-09-28T17:34:18.248Z,844
2022-09-28T17:36:18.128Z,973
2022-09-28T17:38:17.950Z,1057
2022-09-28T17:40:17.464Z,933
2022-09-28T17:42:17.637Z,1036
2022-09-28T17:44:17.520Z,1074
2022-09-28T17:46:18.456Z,975
2022-09-28T17:48:18.299Z,847
2022-09-28T17:50:18.079Z,1074
2022-09-28T17:52:17.885Z,1005
2022-09-28T17:54:17.658Z,1000
2022-09-28T17:56:17.506Z,1129
2022-09-28T17:58:18.269Z,945
2022-09-28T18:00:18.037Z,1161
2022-09-28T18:02:17.834Z,1280
2022-09-28T18:04:33.689Z,1344
2022-09-28T18:06:18.070Z,1278
2022-09-28T18:08:17.811Z,1231
2022-09-28T18:10:17.605Z,1089
2022-09-28T18:12:17.614Z,1103
2022-09-28T18:14:17.370Z,1208
2022-09-28T18:16:18.230Z,1174
2022-09-28T18:18:18.169Z,1175
2022-09-28T18:20:17.933Z,1062
2022-09-28T18:22:17.648Z,1141
2022-09-28T18:24:17.458Z,1110
2022-09-28T18:26:17.395Z,1228
2022-09-28T18:28:18.109Z,1184
2022-09-28T18:30:17.815Z,1128
2022-09-28T18:32:17.644Z,1121
2022-09-28T18:34:17.467Z,1353
2022-09-28T18:36:18.298Z,1513
2022-09-28T18:38:18.078Z,1701
2022-09-28T18:40:18.023Z,1373
2022-09-28T18:42:17.852Z,1503
2022-09-28T18:44:17.714Z,1375
2022-09-28T18:46:17.662Z,1379
2022-09-28T18:48:17.550Z,1546
2022-09-28T18:50:17.395Z,1455
2022-09-28T18:52:18.307Z,1275
2022-09-28T18:54:18.031Z,1312
2022-09-28T18:56:17.778Z,1365
2022-09-28T18:58:17.619Z,1399
2022-09-28T19:00:17.420Z,1216
2022-09-28T19:02:18.436Z,1314
2022-09-28T19:04:17.429Z,1246
2022-09-28T19:06:18.275Z,1300
2022-09-28T19:08:18.205Z,1369
2022-09-28T19:10:17.993Z,1157
2022-09-28T19:12:17.719Z,1538
2022-09-28T19:14:17.486Z,1233
2022-09-28T19:16:18.376Z,1430
2022-09-28T19:18:17.363Z,1214
2022-09-28T19:20:18.181Z,1118
2022-09-28T19:22:18.089Z,1401
2022-09-28T19:24:17.886Z,1317
2022-09-28T19:26:17.641Z,1297
2022-09-28T19:28:17.369Z,1394
2022-09-28T19:30:18.198Z,1193
2022-09-28T19:32:18.200Z,1250
2022-09-28T19:34:18.147Z,1012
2022-09-28T19:36:18.433Z,1383
2022-09-28T19:38:18.266Z,1319
2022-09-28T19:40:18.151Z,1320
2022-09-28T19:42:18.287Z,1369
2022-09-28T19:44:18.320Z,1223
2022-09-28T19:46:18.265Z,1320
2022-09-28T19:48:18.101Z,1289
2022-09-28T19:50:17.997Z,1091
2022-09-28T19:52:17.810Z,1178
2022-09-28T19:54:17.658Z,1172
2022-09-28T19:56:17.472Z,1212
2022-09-28T19:58:18.314Z,1396
2022-09-28T20:00:18.100Z,1222
2022-09-28T20:02:17.979Z,1042
2022-09-28T20:04:17.823Z,1239
2022-09-28T20:06:17.639Z,1168
2022-09-28T20:08:17.458Z,1340
2022-09-28T20:10:18.281Z,1002
2022-09-28T20:12:18.129Z,1305
2022-09-28T20:14:18.007Z,1159
2022-09-28T20:16:17.830Z,1198
2022-09-28T20:18:17.802Z,1185
2022-09-28T20:20:17.563Z,1182
2022-09-28T20:22:17.410Z,1305
2022-09-28T20:24:17.466Z,1002
2022-09-28T20:26:17.404Z,910
2022-09-28T20:28:18.199Z,1017
2022-09-28T20:30:18.283Z,1186
2022-09-28T20:32:18.051Z,991
2022-09-28T20:34:18.246Z,995
2022-09-28T20:36:18.091Z,1181
2022-09-28T20:38:17.859Z,1029
2022-09-28T20:40:17.711Z,1009
2022-09-28T20:42:17.566Z,1125
2022-09-28T20:44:18.442Z,1172
2022-09-28T20:46:18.401Z,1153
2022-09-28T20:48:18.247Z,1073
2022-09-28T20:50:18.321Z,1170
2022-09-28T20:52:18.205Z,1245
2022-09-28T20:54:18.055Z,1136
2022-09-28T20:56:17.894Z,1163
2022-09-28T20:58:17.685Z,1137
2022-09-28T21:00:17.529Z,1214
2022-09-28T21:02:18.398Z,1164
2022-09-28T21:04:18.236Z,1089
2022-09-28T21:06:17.960Z,1056
2022-09-28T21:08:17.718Z,1124
2022-09-28T21:10:17.503Z,867
2022-09-28T21:12:18.271Z,996
2022-09-28T21:14:18.166Z,1152
2022-09-28T21:16:18.153Z,968
2022-09-28T21:18:18.121Z,870
2022-09-28T21:20:17.992Z,1062
2022-09-28T21:22:17.784Z,1136
2022-09-28T21:24:17.573Z,1032
2022-09-28T21:26:17.411Z,987
2022-09-28T21:28:18.274Z,1017
2022-09-28T21:30:18.003Z,1045
2022-09-28T21:32:17.830Z,920
2022-09-28T21:34:17.687Z,1047
2022-09-28T21:36:17.518Z,965
2022-09-28T21:38:17.413Z,967
2022-09-28T21:40:20.687Z,863
2022-09-28T21:42:17.456Z,850
2022-09-28T21:44:18.253Z,1006
2022-09-28T21:46:18.100Z,958
2022-09-28T21:48:18.311Z,1016
2022-09-28T21:50:18.102Z,966
2022-09-28T21:52:17.979Z,881
2022-09-28T21:54:18.296Z,949
2022-09-28T21:56:18.277Z,868
2022-09-28T21:58:18.316Z,940
2022-09-28T22:00:18.195Z,833
2022-09-28T22:02:17.546Z,975
2022-09-28T22:04:17.403Z,935
2022-09-28T22:06:18.407Z,944
2022-09-28T22:08:18.216Z,926
2022-09-28T22:10:18.343Z,930
2022-09-28T22:12:18.110Z,889
2022-09-28T22:14:17.941Z,669
2022-09-28T22:16:17.841Z,801
2022-09-28T22:18:17.891Z,716
2022-09-28T22:20:17.650Z,917
2022-09-28T22:22:17.469Z,724
2022-09-28T22:24:18.233Z,796
2022-09-28T22:26:17.371Z,905
2022-09-28T22:28:18.218Z,787
2022-09-28T22:30:18.317Z,870
2022-09-28T22:32:18.109Z,803
2022-09-28T22:34:22.426Z,800
2022-09-28T22:36:17.463Z,670
2022-09-28T22:38:18.256Z,768
2022-09-28T22:40:18.212Z,603
2022-09-28T22:42:18.108Z,725
2022-09-28T22:44:18.160Z,748
2022-09-28T22:46:17.967Z,741
2022-09-28T22:48:17.636Z,656
2022-09-28T22:50:17.459Z,718
2022-09-28T22:52:18.208Z,696
2022-09-28T22:54:17.437Z,748
2022-09-28T22:56:19.117Z,729
2022-09-28T22:58:18.080Z,559
2022-09-28T23:00:17.850Z,639
2022-09-28T23:02:17.692Z,607
2022-09-28T23:04:17.630Z,739
2022-09-28T23:06:17.436Z,723
2022-09-28T23:08:18.281Z,652
2022-09-28T23:10:18.200Z,641
2022-09-28T23:12:18.214Z,656
2022-09-28T23:14:17.410Z,758
2022-09-28T23:16:17.436Z,710
2022-09-28T23:18:17.437Z,664
2022-09-28T23:20:18.283Z,740
2022-09-28T23:22:18.270Z,767
2022-09-28T23:24:18.160Z,725
2022-09-28T23:26:18.078Z,634
2022-09-28T23:28:17.964Z,628
2022-09-28T23:30:17.718Z,697
2022-09-28T23:32:17.451Z,573
2022-09-28T23:34:18.271Z,673
2022-09-28T23:36:18.108Z,589
2022-09-28T23:38:17.936Z,550
2022-09-28T23:40:17.711Z,623
2022-09-28T23:42:17.550Z,608
2022-09-28T23:44:18.315Z,708
2022-09-28T23:46:20.858Z,638
2022-09-28T23:48:17.990Z,579
2022-09-28T23:50:17.775Z,607
2022-09-28T23:52:17.571Z,684
2022-09-28T23:54:18.386Z,609
2022-09-28T23:56:18.241Z,565
2022-09-28T23:58:18.092Z,657
